(°C)
14°
13°
12°
12°
11°
10°
(°C)
13°
12°
11°
10°
З
ЮИ
И
ИСИ
ИСИ
ИСИ
СИ
(km/h)
3-6
1-3
1-3
2-5
3-6
3-6
4-6
(mm)
0
0
0
0
0
0
0
(%)
0
0
0
0
0
0
0

Издигане на слънцето

/ -19.5°
sun-icon
UV 3
06:45
17:16
Намаляващ полумесец (282°)
01:07
11:58

METAR за Сан Диего (KSAN)

Час Условия Температура/
Точка на оросяване
Вятър Видимост Времето Облаци Налягане Промяна Сурови
VFR 15°C / 10.6°C 180º 5kt >10km - Broken Clouds 20000ft
Broken Clouds 25000ft
1019 - KSAN 270151Z 18005KT 10SM BKN200 BKN250 15/11 A3010 RMK AO2 SLP194 T01500106
VFR 15.6°C / 8.9°C variable 0kt >10km - Few Clouds 20000ft
Broken Clouds 25000ft
1018 - KSAN 270051Z 00000KT 10SM FEW200 BKN250 16/09 A3009 RMK AO2 SLP188 T01560089
VFR 16.1°C / 11.1°C 290º 6kt >10km - Few Clouds 1000ft
Broken Clouds 24000ft
1018 - KSAN 262351Z 29006KT 10SM FEW010 BKN240 16/11 A3008 RMK AO2 SLP186 T01610111 10194 20150 53001
VFR 17.2°C / 11.1°C 270º 10kt >10km - Few Clouds 1000ft
Scattered Clouds 25000ft
1018 - KSAN 262251Z 27010KT 10SM FEW010 SCT250 17/11 A3007 RMK AO2 SLP182 T01720111
VFR 18.3°C / 5.6°C 290º 9kt >10km - Few Clouds 1000ft
Scattered Clouds 25000ft
1018 - KSAN 262151Z 29009KT 10SM FEW010 SCT250 18/06 A3006 RMK AO2 SLP180 T01830056
VFR 18.3°C / 3.3°C 300º 6kt >10km - Few Clouds 1000ft
Scattered Clouds 25000ft
1018 - KSAN 262051Z 30006KT 10SM FEW010 SCT250 18/03 A3008 RMK AO2 SLP185 T01830033 58022
VFR 17.8°C / 8.3°C 320º 6kt >10km - Few Clouds 1000ft
Scattered Clouds 25000ft
1019 - KSAN 261951Z 32006KT 10SM FEW010 SCT250 18/08 A3010 RMK AO2 SLP194 T01780083
VFR 16.1°C / 8.9°C 320º 5kt >10km - Scattered Clouds 25000ft 1020 - KSAN 261851Z 32005KT 10SM SCT250 16/09 A3014 RMK AO2 SLP205 T01610089
VFR 15°C / 10.6°C variable 4kt >10km - Few Clouds 500ft
Scattered Clouds 25000ft
1020 - KSAN 261751Z VRB04KT 10SM FEW005 SCT250 15/11 A3015 RMK AO2 SLP207 T01500106 10150 20083 51011
VFR 12.2°C / 7.2°C variable 0kt >10km - Scattered Clouds 25000ft 1020 - KSAN 261651Z 00000KT 10SM SCT250 12/07 A3014 RMK AO2 SLP206 T01220072
VFR 10°C / 8.9°C variable 0kt >10km - Few Clouds 15000ft
Broken Clouds 25000ft
1020 - KSAN 261551Z 00000KT 7SM FEW150 BKN250 10/09 A3013 RMK AO2 SLP201 T01000089
MVFR 8.3°C / 7.8°C 40º 4kt 8000m Mist Vertical Visibility of 0ft.
Scattered Clouds 15000ft
Broken Clouds 25000ft
1019 - KSAN 261451Z 04004KT 5SM BR FEW003 SCT150 BKN250 08/08 A3011 RMK AO2 SLP197 T00830078 52011 $
MVFR 9.4°C / 8.9°C variable 0kt 6400m Mist Vertical Visibility of 0ft.
Scattered Clouds 15000ft
- KSAN 261355Z 00000KT 4SM BR SCT004 SCT150 09/09 A3010 RMK AO2 T00940089
LIFR 9.4°C / 8.9°C variable 0kt 4800m Mist Vertical Visibility of 0ft. 1019 - KSAN 261351Z 00000KT 3SM BR BKN003 09/09 A3010 RMK AO2 SLP193 T00940089
LIFR 9.4°C / 8.9°C variable 0kt 4800m Mist Vertical Visibility of 0ft. - KSAN 261338Z 00000KT 3SM BR OVC003 09/09 A3010 RMK AO2 T00940089
LIFR 10°C / 8.9°C 40º 3kt 6400m Mist Vertical Visibility of 0ft. - KSAN 261304Z 04003KT 4SM BR BKN004 10/09 A3009 RMK AO2 T01000089
MVFR 10°C / 8.9°C 10º 4kt 8000m Mist Vertical Visibility of 0ft. 1018 - KSAN 261251Z 01004KT 5SM BR SCT011 10/09 A3009 RMK AO2 SLP189 T01000089
VFR 10.6°C / 9.4°C 60º 5kt >10km - Scattered Clouds 1200ft 1018 - KSAN 261151Z 06005KT 7SM SCT012 11/09 A3008 RMK AO2 SLP186 7//// T01060094 10133 20106 58002
VFR 11.1°C / 9.4°C 60º 5kt >10km - Scattered Clouds 1200ft - KSAN 261119Z 06005KT 9SM SCT012 11/09 A3008 RMK AO2 T01110094
MVFR 11.7°C / 10°C 100º 4kt >10km - Overcast 1200ft 1018 - KSAN 261051Z 10004KT 10SM OVC012 12/10 A3009 RMK AO2 SLP189 T01170100
MVFR 12.2°C / 10°C 80º 4kt >10km - Overcast 1300ft 1018 - KSAN 260951Z 08004KT 10SM OVC013 12/10 A3009 RMK AO2 SLP189 T01220100
MVFR 13.3°C / 10°C 50º 4kt >10km - Overcast 1400ft 1018 - KSAN 260851Z 05004KT 10SM OVC014 13/10 A3009 RMK AO2 SLP187 T01330100 51006
MVFR 13.3°C / 10.6°C variable 0kt >10km - Overcast 1400ft - KSAN 260811Z 00000KT 10SM OVC014 13/11 A3009 RMK AO2 T01330106
MVFR 13.3°C / 10°C variable 0kt >10km - Overcast 1500ft 1018 - KSAN 260751Z 00000KT 10SM OVC015 13/10 A3008 RMK AO2 SLP186 T01330100 401671178

VFR

15°C / 10.6°C

[Още]
Вятър 180º 5kt
Видимост >10km
Времето -
Облаци Broken Clouds 20000ft
Broken Clouds 25000ft
Налягане 1019
Промяна -
Сурови KSAN 270151Z 18005KT 10SM BKN200 BKN250 15/11 A3010 RMK AO2 SLP194 T01500106

VFR

15.6°C / 8.9°C

[Още]
Вятър variable 0kt
Видимост >10km
Времето -
Облаци Few Clouds 20000ft
Broken Clouds 25000ft
Налягане 1018
Промяна -
Сурови KSAN 270051Z 00000KT 10SM FEW200 BKN250 16/09 A3009 RMK AO2 SLP188 T01560089

VFR

16.1°C / 11.1°C

[Още]
Вятър 290º 6kt
Видимост >10km
Времето -
Облаци Few Clouds 1000ft
Broken Clouds 24000ft
Налягане 1018
Промяна -
Сурови KSAN 262351Z 29006KT 10SM FEW010 BKN240 16/11 A3008 RMK AO2 SLP186 T01610111 10194 20150 53001

VFR

17.2°C / 11.1°C

[Още]
Вятър 270º 10kt
Видимост >10km
Времето -
Облаци Few Clouds 1000ft
Scattered Clouds 25000ft
Налягане 1018
Промяна -
Сурови KSAN 262251Z 27010KT 10SM FEW010 SCT250 17/11 A3007 RMK AO2 SLP182 T01720111

VFR

18.3°C / 5.6°C

[Още]
Вятър 290º 9kt
Видимост >10km
Времето -
Облаци Few Clouds 1000ft
Scattered Clouds 25000ft
Налягане 1018
Промяна -
Сурови KSAN 262151Z 29009KT 10SM FEW010 SCT250 18/06 A3006 RMK AO2 SLP180 T01830056

VFR

18.3°C / 3.3°C

[Още]
Вятър 300º 6kt
Видимост >10km
Времето -
Облаци Few Clouds 1000ft
Scattered Clouds 25000ft
Налягане 1018
Промяна -
Сурови KSAN 262051Z 30006KT 10SM FEW010 SCT250 18/03 A3008 RMK AO2 SLP185 T01830033 58022

VFR

17.8°C / 8.3°C

[Още]
Вятър 320º 6kt
Видимост >10km
Времето -
Облаци Few Clouds 1000ft
Scattered Clouds 25000ft
Налягане 1019
Промяна -
Сурови KSAN 261951Z 32006KT 10SM FEW010 SCT250 18/08 A3010 RMK AO2 SLP194 T01780083

VFR

16.1°C / 8.9°C

[Още]
Вятър 320º 5kt
Видимост >10km
Времето -
Облаци Scattered Clouds 25000ft
Налягане 1020
Промяна -
Сурови KSAN 261851Z 32005KT 10SM SCT250 16/09 A3014 RMK AO2 SLP205 T01610089

VFR

15°C / 10.6°C

[Още]
Вятър variable 4kt
Видимост >10km
Времето -
Облаци Few Clouds 500ft
Scattered Clouds 25000ft
Налягане 1020
Промяна -
Сурови KSAN 261751Z VRB04KT 10SM FEW005 SCT250 15/11 A3015 RMK AO2 SLP207 T01500106 10150 20083 51011

VFR

12.2°C / 7.2°C

[Още]
Вятър variable 0kt
Видимост >10km
Времето -
Облаци Scattered Clouds 25000ft
Налягане 1020
Промяна -
Сурови KSAN 261651Z 00000KT 10SM SCT250 12/07 A3014 RMK AO2 SLP206 T01220072

VFR

10°C / 8.9°C

[Още]
Вятър variable 0kt
Видимост >10km
Времето -
Облаци Few Clouds 15000ft
Broken Clouds 25000ft
Налягане 1020
Промяна -
Сурови KSAN 261551Z 00000KT 7SM FEW150 BKN250 10/09 A3013 RMK AO2 SLP201 T01000089

MVFR

8.3°C / 7.8°C

[Още]
Вятър 40º 4kt
Видимост 8000m
Времето Mist
Облаци Vertical Visibility of 0ft.
Scattered Clouds 15000ft
Broken Clouds 25000ft
Налягане 1019
Промяна -
Сурови KSAN 261451Z 04004KT 5SM BR FEW003 SCT150 BKN250 08/08 A3011 RMK AO2 SLP197 T00830078 52011 $

MVFR

9.4°C / 8.9°C

[Още]
Вятър variable 0kt
Видимост 6400m
Времето Mist
Облаци Vertical Visibility of 0ft.
Scattered Clouds 15000ft
Налягане
Промяна -
Сурови KSAN 261355Z 00000KT 4SM BR SCT004 SCT150 09/09 A3010 RMK AO2 T00940089

LIFR

9.4°C / 8.9°C

[Още]
Вятър variable 0kt
Видимост 4800m
Времето Mist
Облаци Vertical Visibility of 0ft.
Налягане 1019
Промяна -
Сурови KSAN 261351Z 00000KT 3SM BR BKN003 09/09 A3010 RMK AO2 SLP193 T00940089

LIFR

9.4°C / 8.9°C

[Още]
Вятър variable 0kt
Видимост 4800m
Времето Mist
Облаци Vertical Visibility of 0ft.
Налягане
Промяна -
Сурови KSAN 261338Z 00000KT 3SM BR OVC003 09/09 A3010 RMK AO2 T00940089

LIFR

10°C / 8.9°C

[Още]
Вятър 40º 3kt
Видимост 6400m
Времето Mist
Облаци Vertical Visibility of 0ft.
Налягане
Промяна -
Сурови KSAN 261304Z 04003KT 4SM BR BKN004 10/09 A3009 RMK AO2 T01000089

MVFR

10°C / 8.9°C

[Още]
Вятър 10º 4kt
Видимост 8000m
Времето Mist
Облаци Vertical Visibility of 0ft.
Налягане 1018
Промяна -
Сурови KSAN 261251Z 01004KT 5SM BR SCT011 10/09 A3009 RMK AO2 SLP189 T01000089

VFR

10.6°C / 9.4°C

[Още]
Вятър 60º 5kt
Видимост >10km
Времето -
Облаци Scattered Clouds 1200ft
Налягане 1018
Промяна -
Сурови KSAN 261151Z 06005KT 7SM SCT012 11/09 A3008 RMK AO2 SLP186 7//// T01060094 10133 20106 58002

VFR

11.1°C / 9.4°C

[Още]
Вятър 60º 5kt
Видимост >10km
Времето -
Облаци Scattered Clouds 1200ft
Налягане
Промяна -
Сурови KSAN 261119Z 06005KT 9SM SCT012 11/09 A3008 RMK AO2 T01110094

MVFR

11.7°C / 10°C

[Още]
Вятър 100º 4kt
Видимост >10km
Времето -
Облаци Overcast 1200ft
Налягане 1018
Промяна -
Сурови KSAN 261051Z 10004KT 10SM OVC012 12/10 A3009 RMK AO2 SLP189 T01170100

MVFR

12.2°C / 10°C

[Още]
Вятър 80º 4kt
Видимост >10km
Времето -
Облаци Overcast 1300ft
Налягане 1018
Промяна -
Сурови KSAN 260951Z 08004KT 10SM OVC013 12/10 A3009 RMK AO2 SLP189 T01220100

MVFR

13.3°C / 10°C

[Още]
Вятър 50º 4kt
Видимост >10km
Времето -
Облаци Overcast 1400ft
Налягане 1018
Промяна -
Сурови KSAN 260851Z 05004KT 10SM OVC014 13/10 A3009 RMK AO2 SLP187 T01330100 51006

MVFR

13.3°C / 10.6°C

[Още]
Вятър variable 0kt
Видимост >10km
Времето -
Облаци Overcast 1400ft
Налягане
Промяна -
Сурови KSAN 260811Z 00000KT 10SM OVC014 13/11 A3009 RMK AO2 T01330106

MVFR

13.3°C / 10°C

[Още]
Вятър variable 0kt
Видимост >10km
Времето -
Облаци Overcast 1500ft
Налягане 1018
Промяна -
Сурови KSAN 260751Z 00000KT 10SM OVC015 13/10 A3008 RMK AO2 SLP186 T01330100 401671178

TAF за Сан Диего (KSAN)

From till


From till Wind 280º 8kt. Visibility 10km or more. Few Clouds 1000ft. Scattered Clouds 25000ft.
From till Wind variable 4kt. Visibility 10km or more. Few Clouds 1000ft. Scattered Clouds 25000ft.
Temporarly from till Visibility 8000m. Haze . Broken Clouds 700ft.
From till Wind 300º 8kt. Visibility 10km or more. Sky Clear.
From till Wind variable 4kt. Visibility 10km or more. Sky Clear.

Сурови: KSAN 262320Z 2700/2806 28008KT P6SM FEW010 SCT250 FM270200 VRB04KT P6SM FEW010 SCT250 TEMPO 2706/2710 5SM HZ BKN007 FM272100 30008KT P6SM SKC FM280300 VRB04KT P6SM SKC

Радар и валежи в момента за Сан Диего

Ситен дъжд
Лек
Умерен
Тежък
Много тежък
Аве

Маркерът за локация обозначава Сан Диего. Анимацията показва Радара за валежи за последния час, както и прогноза за 1h. Дъждът или лекият сняг може да са невидими за радара. Интензивността на валежите е обозначена с цветни кодове, вариращи от светлосиньо до оранжево.

Актуални сателитни изображения за Сан Диего, САЩ

Маркерът за локация е поставен върху Сан Диего. [Още]

Сателитното изображение в реално време съчетава видимата светлина през деня с инфрачервеното лъчение през нощта. През нощта изображението не е тъмно, тъй като инфрачервеното лъчение може да открива температурни разлики. За съжаление ниските облаци и мъглата са трудни за разграничаване от температурите на земята и затова могат да бъдат почти невидими през нощта. Сателитните изображения на Meteosat за Европа се актуализират в реално време на всеки 5 минути. Изображенията GOES-16/GOES-17 (Северна и Южна Америка) и Химавари (Азия) се актуализират на всеки 10 минути.